createdAt,value
2023-04-02T00:01:33.526Z,99.99
2023-04-02T00:04:41.065Z,99.99
2023-04-02T00:07:48.632Z,99.99
2023-04-02T00:10:58.005Z,99.99
2023-04-02T00:14:05.600Z,99.99
2023-04-02T00:17:13.087Z,99.99
2023-04-02T00:20:22.292Z,99.99
2023-04-02T00:23:29.915Z,99.99
2023-04-02T00:26:37.346Z,99.99
2023-04-02T00:29:46.698Z,99.99
2023-04-02T00:32:54.408Z,99.99
2023-04-02T00:36:01.780Z,99.99
2023-04-02T00:39:10.419Z,99.99
2023-04-02T00:42:17.604Z,99.99
2023-04-02T00:45:24.871Z,99.99
2023-04-02T00:48:32.281Z,99.99
2023-04-02T00:51:40.512Z,99.99
2023-04-02T00:54:48.293Z,99.99
2023-04-02T00:57:55.980Z,99.94
2023-04-02T01:01:04.392Z,99.42
2023-04-02T01:04:11.968Z,99.63
2023-04-02T01:07:19.175Z,99.73
2023-04-02T01:10:28.314Z,99.21
2023-04-02T01:13:36.150Z,99.21
2023-04-02T01:16:43.053Z,98.69
2023-04-02T01:19:51.958Z,99.11
2023-04-02T01:22:59.615Z,99.32
2023-04-02T01:26:07.974Z,99.11
2023-04-02T01:29:15.319Z,98.53
2023-04-02T01:32:24.142Z,98.43
2023-04-02T01:35:31.647Z,97.91
2023-04-02T01:38:38.512Z,97.17
2023-04-02T01:41:47.421Z,96.59
2023-04-02T01:44:55.048Z,97.28
2023-04-02T01:48:02.246Z,97.17
2023-04-02T01:51:11.135Z,97.01
2023-04-02T01:54:18.578Z,96.59
2023-04-02T01:57:25.964Z,96.39
2023-04-02T02:00:34.675Z,96.70
2023-04-02T02:03:42.105Z,96.59
2023-04-02T02:06:49.648Z,97.01
2023-04-02T02:09:57.232Z,96.91
2023-04-02T02:13:05.916Z,97.70
2023-04-02T02:16:13.696Z,97.91
2023-04-02T02:19:20.844Z,97.59
2023-04-02T02:22:30.089Z,97.70
2023-04-02T02:25:38.153Z,97.59
2023-04-02T02:28:45.156Z,96.66
2023-04-02T02:31:54.463Z,97.38
2023-04-02T02:35:01.834Z,97.80
2023-04-02T02:38:09.346Z,97.07
2023-04-02T02:41:18.704Z,96.76
2023-04-02T02:44:26.250Z,96.59
2023-04-02T02:47:33.664Z,96.28
2023-04-02T02:50:42.918Z,96.66
2023-04-02T02:53:50.334Z,96.55
2023-04-02T02:56:57.765Z,96.45
2023-04-02T03:00:04.897Z,96.03
2023-04-02T03:03:14.105Z,95.72
2023-04-02T03:06:21.428Z,95.14
2023-04-02T03:09:28.538Z,95.62
2023-04-02T03:12:37.795Z,95.93
2023-04-02T03:15:44.971Z,96.03
2023-04-02T03:18:52.835Z,95.30
2023-04-02T03:22:02.392Z,95.72
2023-04-02T03:25:09.523Z,95.72
2023-04-02T03:28:17.579Z,95.30
2023-04-02T03:31:27.053Z,95.62
2023-04-02T03:34:33.860Z,94.57
2023-04-02T03:37:41.374Z,94.26
2023-04-02T03:40:49.037Z,93.05
2023-04-02T03:43:57.445Z,92.74
2023-04-02T03:47:05.244Z,92.60
2023-04-02T03:50:12.662Z,92.95
2023-04-02T03:53:21.580Z,93.33
2023-04-02T03:56:29.346Z,93.54
2023-04-02T03:59:36.658Z,92.70
2023-04-02T04:02:45.524Z,92.49
2023-04-02T04:05:53.157Z,91.87
2023-04-02T04:09:00.636Z,90.87
2023-04-02T04:12:09.576Z,91.77
2023-04-02T04:15:17.036Z,91.39
2023-04-02T04:18:25.114Z,92.08
2023-04-02T04:21:32.434Z,91.87
2023-04-02T04:24:41.293Z,91.14
2023-04-02T04:27:48.974Z,90.93
2023-04-02T04:30:56.594Z,90.93
2023-04-02T04:34:05.537Z,91.25
2023-04-02T04:37:13.384Z,91.04
2023-04-02T04:40:20.802Z,91.25
2023-04-02T04:43:29.488Z,91.97
2023-04-02T04:46:37.556Z,91.77
2023-04-02T04:49:44.844Z,90.52
2023-04-02T04:52:53.596Z,90.93
2023-04-02T04:56:16.033Z,90.93
2023-04-02T04:59:05.909Z,89.89
2023-04-02T05:02:13.455Z,90.31
2023-04-02T05:05:22.225Z,90.69
2023-04-02T05:08:29.980Z,90.06
2023-04-02T05:11:36.994Z,89.64
2023-04-02T05:14:46.444Z,90.26
2023-04-02T05:17:54.161Z,90.89
2023-04-02T05:21:01.292Z,89.54
2023-04-02T05:24:10.412Z,89.12
2023-04-02T05:27:18.157Z,87.88
2023-04-02T05:30:25.168Z,86.83
2023-04-02T05:33:34.075Z,87.46
2023-04-02T05:36:41.509Z,86.94
2023-04-02T05:39:48.818Z,87.66
2023-04-02T05:42:57.732Z,87.63
2023-04-02T05:46:04.922Z,88.04
2023-04-02T05:49:12.413Z,87.52
2023-04-02T05:52:19.802Z,87.21
2023-04-02T05:55:28.567Z,86.90
2023-04-02T05:58:37.156Z,87.01
2023-04-02T06:01:44.624Z,88.46
2023-04-02T06:04:53.261Z,88.46
2023-04-02T06:08:01.239Z,88.77
2023-04-02T06:11:08.417Z,87.63
2023-04-02T06:14:17.440Z,86.07
2023-04-02T06:17:25.069Z,86.80
2023-04-02T06:20:31.955Z,86.69
2023-04-02T06:23:40.881Z,87.69
2023-04-02T06:26:48.533Z,87.07
2023-04-02T06:29:55.461Z,88.84
2023-04-02T06:33:03.056Z,86.13
2023-04-02T06:36:11.882Z,85.20
2023-04-02T06:39:19.024Z,85.41
2023-04-02T06:42:26.494Z,85.82
2023-04-02T06:45:35.896Z,86.34
2023-04-02T06:48:43.679Z,86.65
2023-04-02T06:51:51.222Z,86.55
2023-04-02T06:55:00.657Z,86.34
2023-04-02T06:58:08.427Z,87.03
2023-04-02T07:01:15.904Z,86.93
2023-04-02T07:04:25.414Z,85.99
2023-04-02T07:07:32.844Z,87.34
2023-04-02T07:10:41.601Z,86.72
2023-04-02T07:13:50.188Z,86.19
2023-04-02T07:16:58.797Z,85.47
2023-04-02T07:20:06.371Z,85.47
2023-04-02T07:23:16.512Z,85.47
2023-04-02T07:26:15.080Z,85.78
2023-04-02T07:29:22.309Z,87.71
2023-04-02T07:32:30.220Z,85.95
2023-04-02T07:35:39.140Z,86.78
2023-04-02T07:38:46.509Z,84.60
2023-04-02T07:41:54.250Z,87.19
2023-04-02T07:45:05.900Z,88.40
2023-04-02T07:48:13.589Z,87.09
2023-04-02T07:51:21.036Z,86.78
2023-04-02T07:54:28.741Z,87.09
2023-04-02T07:57:38.460Z,87.26
2023-04-02T08:00:46.380Z,86.22
2023-04-02T08:03:54.763Z,85.71
2023-04-02T08:07:04.061Z,85.91
2023-04-02T08:10:11.472Z,87.88
2023-04-02T08:13:20.203Z,86.74
2023-04-02T08:16:29.111Z,85.91
2023-04-02T08:19:48.182Z,86.85
2023-04-02T08:22:42.065Z,86.64
2023-04-02T08:25:50.512Z,85.19
2023-04-02T08:28:57.938Z,85.81
2023-04-02T08:32:05.809Z,86.54
2023-04-02T08:35:14.219Z,85.81
2023-04-02T08:38:22.193Z,85.29
2023-04-02T08:41:29.857Z,85.39
2023-04-02T08:44:37.419Z,83.22
2023-04-02T08:47:47.080Z,84.46
2023-04-02T08:50:54.929Z,83.42
2023-04-02T08:54:02.670Z,84.46
2023-04-02T08:57:12.082Z,84.46
2023-04-02T09:00:19.540Z,83.11
2023-04-02T09:03:27.214Z,82.90
2023-04-02T09:06:35.630Z,84.11
2023-04-02T09:09:43.731Z,84.00
2023-04-02T09:12:51.732Z,84.73
2023-04-02T09:16:00.221Z,82.76
2023-04-02T09:19:07.694Z,82.97
2023-04-02T09:22:15.487Z,82.34
2023-04-02T09:25:22.786Z,82.34
2023-04-02T09:28:32.212Z,83.28
2023-04-02T09:31:40.060Z,83.14
2023-04-02T09:34:47.321Z,81.68
2023-04-02T09:37:56.359Z,84.28
2023-04-02T09:41:04.129Z,83.51
2023-04-02T09:44:11.568Z,82.10
2023-04-02T09:47:20.711Z,83.10
2023-04-02T09:50:28.476Z,83.41
2023-04-02T09:53:36.153Z,82.34
2023-04-02T09:56:45.076Z,81.20
2023-04-02T09:59:53.068Z,80.68
2023-04-02T10:03:00.674Z,80.26
2023-04-02T10:06:08.101Z,81.02
2023-04-02T10:09:17.860Z,80.51
2023-04-02T10:12:24.957Z,81.51
2023-04-02T10:15:32.623Z,79.95
2023-04-02T10:18:41.946Z,79.40
2023-04-02T10:21:48.988Z,80.54
2023-04-02T10:24:56.998Z,78.22
2023-04-02T10:28:05.934Z,78.43
2023-04-02T10:31:13.754Z,79.12
2023-04-02T10:34:21.258Z,77.74
2023-04-02T10:37:30.196Z,75.26
2023-04-02T10:40:37.883Z,77.12
2023-04-02T10:43:45.611Z,77.91
2023-04-02T10:46:53.241Z,75.43
2023-04-02T10:50:01.929Z,74.84
2023-04-02T10:53:09.213Z,74.12
2023-04-02T10:56:17.257Z,78.94
2023-04-02T10:59:25.711Z,76.22
2023-04-02T11:02:33.303Z,74.15
2023-04-02T11:05:41.129Z,72.81
2023-04-02T11:08:49.878Z,74.98
2023-04-02T11:11:57.231Z,74.26
2023-04-02T11:15:04.946Z,74.26
2023-04-02T11:18:13.303Z,74.77
2023-04-02T11:21:21.071Z,75.09
2023-04-02T11:24:28.788Z,74.77
2023-04-02T11:27:37.377Z,73.50
2023-04-02T11:30:45.004Z,78.49
2023-04-02T11:33:52.261Z,72.27
2023-04-02T11:36:59.712Z,74.60
2023-04-02T11:40:08.628Z,74.36
2023-04-02T11:43:16.627Z,70.79
2023-04-02T11:46:24.681Z,71.55
2023-04-02T11:49:33.497Z,70.96
2023-04-02T11:52:40.990Z,70.68
2023-04-02T11:55:48.414Z,73.77
2023-04-02T11:58:57.374Z,72.40
2023-04-02T12:02:04.772Z,73.95
2023-04-02T12:05:12.293Z,77.46
2023-04-02T12:08:20.708Z,74.84
2023-04-02T12:11:28.433Z,72.95
2023-04-02T12:14:36.027Z,77.22
2023-04-02T12:17:43.385Z,72.51
2023-04-02T12:20:52.672Z,70.69
2023-04-02T12:24:00.440Z,72.75
2023-04-02T12:27:07.795Z,67.00
2023-04-02T12:30:17.026Z,72.58
2023-04-02T12:33:24.170Z,70.70
2023-04-02T12:36:31.452Z,67.65
2023-04-02T12:39:40.205Z,72.38
2023-04-02T12:42:47.612Z,67.03
2023-04-02T12:45:55.169Z,66.85
2023-04-02T12:49:04.163Z,67.09
2023-04-02T12:52:11.602Z,67.84
2023-04-02T12:55:19.047Z,67.22
2023-04-02T12:58:26.320Z,67.12
2023-04-02T13:01:35.442Z,67.25
2023-04-02T13:04:42.793Z,71.20
2023-04-02T13:07:49.941Z,71.41
2023-04-02T13:10:59.935Z,65.66
2023-04-02T13:14:07.972Z,66.00
2023-04-02T13:17:14.902Z,66.96
2023-04-02T13:20:24.122Z,66.06
2023-04-02T13:23:31.385Z,67.03
2023-04-02T13:26:38.748Z,66.72
2023-04-02T13:29:48.067Z,65.48
2023-04-02T13:32:55.741Z,64.79
2023-04-02T13:36:03.114Z,69.22
2023-04-02T13:39:10.395Z,65.38
2023-04-02T13:42:19.038Z,64.73
2023-04-02T13:45:26.217Z,67.68
2023-04-02T13:48:33.872Z,66.25
2023-04-02T13:51:42.623Z,68.51
2023-04-02T13:54:50.107Z,68.85
2023-04-02T13:57:57.890Z,65.28
2023-04-02T14:01:06.826Z,66.61
2023-04-02T14:04:14.209Z,64.84
2023-04-02T14:07:22.342Z,66.01
2023-04-02T14:10:31.870Z,64.63
2023-04-02T14:13:40.398Z,63.84
2023-04-02T14:16:48.057Z,68.57
2023-04-02T14:19:57.428Z,67.21
2023-04-02T14:23:05.312Z,63.85
2023-04-02T14:26:12.678Z,64.12
2023-04-02T14:29:21.245Z,63.56
2023-04-02T14:32:30.445Z,67.71
2023-04-02T14:35:38.240Z,67.50
2023-04-02T14:38:47.065Z,67.71
2023-04-02T14:41:56.337Z,67.33
2023-04-02T14:45:04.251Z,65.53
2023-04-02T14:48:12.353Z,64.09
2023-04-02T14:51:22.024Z,64.94
2023-04-02T14:54:29.433Z,64.66
2023-04-02T14:57:37.721Z,66.10
2023-04-02T15:00:46.890Z,66.34
2023-04-02T15:03:55.200Z,64.41
2023-04-02T15:07:02.564Z,66.67
2023-04-02T15:10:11.487Z,61.53
2023-04-02T15:13:21.412Z,68.60
2023-04-02T15:16:29.067Z,66.00
2023-04-02T15:19:36.872Z,66.17
2023-04-02T15:22:45.900Z,64.53
2023-04-02T15:25:53.942Z,67.03
2023-04-02T15:29:02.525Z,66.54
2023-04-02T15:32:11.743Z,66.27
2023-04-02T15:35:20.593Z,68.15
2023-04-02T15:38:29.088Z,67.66
2023-04-02T15:41:38.251Z,67.22
2023-04-02T15:44:46.102Z,67.63
2023-04-02T15:47:54.058Z,67.25
2023-04-02T15:51:01.727Z,65.71
2023-04-02T15:54:10.944Z,65.19
2023-04-02T15:57:18.753Z,64.68
2023-04-02T16:00:26.646Z,65.06
2023-04-02T16:03:35.679Z,64.54
2023-04-02T16:06:44.676Z,65.78
2023-04-02T16:09:52.292Z,64.65
2023-04-02T16:13:01.307Z,63.75
2023-04-02T16:16:09.877Z,65.09
2023-04-02T16:19:18.154Z,65.50
2023-04-02T16:22:26.978Z,67.57
2023-04-02T16:25:34.481Z,67.15
2023-04-02T16:28:42.449Z,65.53
2023-04-02T16:31:51.354Z,67.29
2023-04-02T16:35:09.508Z,66.91
2023-04-02T16:38:03.605Z,68.45
2023-04-02T16:41:11.513Z,69.89
2023-04-02T16:44:21.716Z,68.55
2023-04-02T16:47:29.704Z,66.83
2023-04-02T16:50:37.321Z,66.73
2023-04-02T16:54:00.404Z,67.86
2023-04-02T16:56:51.908Z,67.17
2023-04-02T17:00:00.436Z,66.66
2023-04-02T17:03:09.891Z,68.34
2023-04-02T17:06:17.658Z,67.82
2023-04-02T17:09:25.394Z,68.54
2023-04-02T17:12:34.441Z,69.37
2023-04-02T17:15:41.819Z,69.68
2023-04-02T17:18:49.500Z,70.40
2023-04-02T17:21:57.035Z,69.51
2023-04-02T17:25:06.017Z,69.30
2023-04-02T17:28:13.761Z,67.68
2023-04-02T17:31:22.004Z,67.06
2023-04-02T17:34:31.334Z,67.82
2023-04-02T17:37:38.922Z,68.95
2023-04-02T17:40:46.016Z,67.06
2023-04-02T17:43:55.312Z,68.51
2023-04-02T17:47:03.189Z,68.61
2023-04-02T17:50:10.195Z,69.33
2023-04-02T17:53:19.586Z,69.64
2023-04-02T17:56:27.341Z,69.67
2023-04-02T17:59:34.311Z,68.12
2023-04-02T18:02:42.006Z,69.60
2023-04-02T18:05:51.330Z,71.47
2023-04-02T18:08:58.740Z,71.19
2023-04-02T18:12:06.696Z,71.12
2023-04-02T18:15:16.000Z,72.88
2023-04-02T18:18:24.054Z,73.74
2023-04-02T18:21:31.500Z,74.05
2023-04-02T18:24:40.544Z,75.43
2023-04-02T18:27:47.984Z,74.22
2023-04-02T18:30:55.276Z,75.15
2023-04-02T18:34:04.175Z,75.15
2023-04-02T18:37:11.924Z,75.57
2023-04-02T18:40:19.025Z,76.75
2023-04-02T18:43:27.085Z,76.75
2023-04-02T18:46:36.521Z,76.54
2023-04-02T18:49:43.633Z,77.51
2023-04-02T18:52:51.371Z,77.92
2023-04-02T18:56:00.458Z,78.27
2023-04-02T18:59:07.620Z,80.04
2023-04-02T19:02:15.499Z,78.92
2023-04-02T19:05:24.899Z,79.34
2023-04-02T19:08:32.053Z,79.44
2023-04-02T19:11:39.413Z,78.92
2023-04-02T19:14:50.252Z,78.41
2023-04-02T19:17:49.291Z,78.41
2023-04-02T19:20:57.003Z,79.34
2023-04-02T19:24:04.895Z,79.44
2023-04-02T19:27:14.017Z,79.38
2023-04-02T19:30:21.492Z,79.69
2023-04-02T19:33:29.502Z,79.80
2023-04-02T19:36:40.406Z,80.21
2023-04-02T19:39:38.056Z,79.72
2023-04-02T19:42:46.273Z,80.25
2023-04-02T19:45:54.727Z,80.77
2023-04-02T19:49:02.459Z,81.60
2023-04-02T19:52:10.186Z,81.01
2023-04-02T19:55:18.881Z,81.53
2023-04-02T19:58:27.115Z,81.74
2023-04-02T20:01:34.636Z,81.95
2023-04-02T20:04:42.528Z,81.74
2023-04-02T20:07:52.307Z,81.95
2023-04-02T20:10:59.631Z,81.57
2023-04-02T20:14:08.713Z,81.67
2023-04-02T20:17:18.258Z,82.20
2023-04-02T20:20:25.717Z,82.09
2023-04-02T20:23:33.697Z,82.40
2023-04-02T20:26:42.234Z,82.54
2023-04-02T20:29:50.070Z,82.44
2023-04-02T20:32:57.930Z,82.65
2023-04-02T20:36:06.367Z,82.23
2023-04-02T20:39:13.496Z,82.34
2023-04-02T20:42:20.907Z,82.79
2023-04-02T20:45:29.741Z,82.58
2023-04-02T20:48:37.365Z,83.83
2023-04-02T20:51:46.173Z,83.00
2023-04-02T20:54:54.301Z,83.25
2023-04-02T20:58:03.390Z,83.35
2023-04-02T21:01:10.468Z,84.18
2023-04-02T21:04:17.889Z,84.39
2023-04-02T21:07:26.928Z,84.33
2023-04-02T21:10:34.899Z,84.22
2023-04-02T21:13:42.667Z,85.05
2023-04-02T21:16:51.451Z,84.84
2023-04-02T21:19:59.083Z,84.01
2023-04-02T21:23:06.438Z,84.33
2023-04-02T21:26:15.596Z,84.43
2023-04-02T21:29:23.230Z,84.33
2023-04-02T21:32:30.680Z,85.05
2023-04-02T21:35:38.119Z,84.74
2023-04-02T21:38:47.647Z,83.80
2023-04-02T21:41:54.652Z,84.64
2023-04-02T21:45:02.111Z,84.74
2023-04-02T21:48:11.328Z,84.57
2023-04-02T21:51:18.212Z,85.20
2023-04-02T21:54:25.980Z,85.51
2023-04-02T21:57:35.158Z,85.72
2023-04-02T22:00:42.099Z,85.76
2023-04-02T22:03:50.285Z,86.69
2023-04-02T22:06:59.472Z,87.22
2023-04-02T22:10:06.388Z,86.69
2023-04-02T22:13:13.952Z,87.01
2023-04-02T22:16:21.373Z,86.74
2023-04-02T22:19:30.084Z,85.90
2023-04-02T22:22:37.993Z,86.38
2023-04-02T22:25:45.224Z,86.32
2023-04-02T22:28:53.801Z,86.11
2023-04-02T22:32:01.159Z,86.53
2023-04-02T22:35:08.702Z,86.43
2023-04-02T22:38:17.568Z,86.88
2023-04-02T22:41:24.569Z,87.51
2023-04-02T22:44:32.425Z,88.24
2023-04-02T22:47:41.218Z,88.65
2023-04-02T22:50:48.395Z,88.65
2023-04-02T22:53:56.438Z,88.45
2023-04-02T22:57:05.292Z,87.71
2023-04-02T23:00:12.532Z,87.82
2023-04-02T23:03:20.040Z,88.03
2023-04-02T23:06:27.000Z,88.49
2023-04-02T23:09:35.913Z,88.70
2023-04-02T23:12:43.874Z,88.90
2023-04-02T23:15:50.904Z,88.59
2023-04-02T23:18:59.859Z,88.80
2023-04-02T23:22:07.617Z,89.11
2023-04-02T23:25:14.552Z,89.15
2023-04-02T23:28:23.689Z,89.58
2023-04-02T23:31:31.386Z,89.68
2023-04-02T23:34:38.295Z,90.09
2023-04-02T23:37:47.019Z,90.34
2023-04-02T23:40:54.402Z,90.45
2023-04-02T23:44:02.179Z,90.66
2023-04-02T23:47:10.049Z,90.77
2023-04-02T23:50:18.370Z,91.12
2023-04-02T23:53:26.168Z,91.64
2023-04-02T23:56:33.792Z,91.96
2023-04-02T23:59:42.128Z,92.06
